Time;durP1;ratioP1;P1;durP2;ratioP2;P2;SDS_P1;SDS_P2;PMS_P1;PMS_P2;Temp;Humidity;BMP_temperature;BMP_pressure;BME280_temperature;BME280_humidity;BME280_pressure;Samples;Min_cycle;Max_cycle;Signal;HPM_P1;HPM_P2
2022/09/26 00:00:09;;;;;;;1.70;1.60;;;;;;;;;;5016146;28;93988;-60
2022/09/26 00:02:38;;;;;;;1.48;1.30;;;;;;;;;;5016606;28;94483;-60
2022/09/26 00:05:05;;;;;;;1.60;1.50;;;;;;;;;;5019380;28;91731;-60
2022/09/26 00:07:31;;;;;;;1.73;1.63;;;;;;;;;;5016449;28;94196;-60
2022/09/26 00:09:57;;;;;;;1.85;1.70;;;;;;;;;;5024356;28;92452;-60
2022/09/26 00:12:24;;;;;;;1.80;1.70;;;;;;;;;;5034640;28;94833;-60
2022/09/26 00:14:50;;;;;;;1.90;1.75;;;;;;;;;;5036403;28;95043;-60
2022/09/26 00:17:16;;;;;;;1.90;1.80;;;;;;;;;;5036501;28;92492;-60
2022/09/26 00:19:43;;;;;;;1.65;1.30;;;;;;;;;;5035895;28;93877;-60
2022/09/26 00:22:09;;;;;;;2.17;1.50;;;;;;;;;;5034207;28;93197;-60
2022/09/26 00:24:35;;;;;;;1.65;1.55;;;;;;;;;;4996454;28;92529;-60
2022/09/26 00:27:02;;;;;;;1.60;1.50;;;;;;;;;;5008107;28;93831;-60
2022/09/26 00:29:28;;;;;;;3.35;1.77;;;;;;;;;;5015589;28;91883;-61
2022/09/26 00:31:54;;;;;;;2.72;1.65;;;;;;;;;;5015012;28;93263;-60
2022/09/26 00:34:21;;;;;;;1.77;1.67;;;;;;;;;;5015136;28;93038;-60
2022/09/26 00:36:47;;;;;;;1.77;1.45;;;;;;;;;;5014539;28;96100;-60
2022/09/26 00:39:14;;;;;;;2.22;1.60;;;;;;;;;;5013914;28;96311;-60
2022/09/26 00:41:40;;;;;;;1.75;1.65;;;;;;;;;;5016272;28;93112;-60
2022/09/26 00:44:25;;;;;;;3.13;1.58;;;;;;;;;;5015147;28;94837;-60
2022/09/26 00:46:52;;;;;;;2.30;1.60;;;;;;;;;;5015873;28;93377;-60
2022/09/26 00:49:30;;;;;;;1.55;1.45;;;;;;;;;;5018873;28;94747;-60
2022/09/26 00:51:58;;;;;;;2.80;1.70;;;;;;;;;;5016239;28;93791;-60
2022/09/26 00:54:27;;;;;;;1.65;1.55;;;;;;;;;;5015525;28;92390;-60
2022/09/26 00:56:54;;;;;;;2.15;1.60;;;;;;;;;;5015777;28;92477;-61
2022/09/26 00:59:28;;;;;;;1.67;1.50;;;;;;;;;;5016183;28;94452;-60
2022/09/26 01:01:56;;;;;;;3.72;1.40;;;;;;;;;;5014045;28;95418;-60
2022/09/26 01:04:28;;;;;;;1.70;1.60;;;;;;;;;;5016037;28;92565;-60
2022/09/26 01:06:55;;;;;;;1.50;1.40;;;;;;;;;;5015453;28;93055;-60
2022/09/26 01:09:22;;;;;;;1.42;1.33;;;;;;;;;;5016088;28;93361;-60
2022/09/26 01:11:50;;;;;;;1.58;1.48;;;;;;;;;;5016035;28;92427;-61
2022/09/26 01:14:18;;;;;;;1.98;1.30;;;;;;;;;;5014496;28;94145;-60
2022/09/26 01:16:46;;;;;;;4.03;1.40;;;;;;;;;;5014408;28;92466;-60
2022/09/26 01:19:25;;;;;;;1.40;1.30;;;;;;;;;;5016286;28;92703;-60
2022/09/26 01:22:18;;;;;;;2.65;1.38;;;;;;;;;;5013457;28;95766;-60
2022/09/26 01:24:53;;;;;;;1.50;1.40;;;;;;;;;;5015608;28;92906;-61
2022/09/26 01:27:19;;;;;;;1.20;1.10;;;;;;;;;;5013987;28;94811;-60
2022/09/26 01:29:55;;;;;;;1.38;1.27;;;;;;;;;;5013179;28;95816;-61
2022/09/26 01:32:47;;;;;;;1.48;1.38;;;;;;;;;;5017437;28;92443;-60
2022/09/26 01:35:25;;;;;;;2.57;1.30;;;;;;;;;;5014172;28;94467;-60
2022/09/26 01:38:00;;;;;;;1.70;1.60;;;;;;;;;;5015502;28;92420;-60
2022/09/26 01:40:42;;;;;;;2.22;1.50;;;;;;;;;;5015378;28;93906;-60
2022/09/26 01:43:11;;;;;;;2.10;1.90;;;;;;;;;;5014161;28;95035;-60
2022/09/26 01:45:43;;;;;;;1.95;1.33;;;;;;;;;;5014326;28;91806;-60
2022/09/26 01:48:12;;;;;;;1.50;1.40;;;;;;;;;;5013801;28;95739;-60
2022/09/26 01:50:44;;;;;;;1.17;1.10;;;;;;;;;;5012949;28;94639;-60
2022/09/26 01:53:30;;;;;;;3.47;1.40;;;;;;;;;;5029576;28;94919;-60
2022/09/26 01:56:06;;;;;;;1.40;1.30;;;;;;;;;;5036772;28;97866;-60
2022/09/26 01:58:39;;;;;;;4.13;1.63;;;;;;;;;;5033362;28;92549;-60
2022/09/26 02:01:09;;;;;;;1.23;1.13;;;;;;;;;;5032794;28;94008;-61
2022/09/26 02:03:38;;;;;;;2.67;1.50;;;;;;;;;;5032906;28;94121;-60
2022/09/26 02:06:08;;;;;;;1.45;1.10;;;;;;;;;;5024562;28;92422;-60
2022/09/26 02:08:39;;;;;;;1.55;1.25;;;;;;;;;;5013910;28;94699;-60
2022/09/26 02:11:11;;;;;;;1.92;1.40;;;;;;;;;;5012956;28;94306;-60
2022/09/26 02:13:40;;;;;;;;;;;;;;;;;;5015454;28;92471;-60
2022/09/26 02:16:12;;;;;;;2.92;1.38;;;;;;;;;;5013652;28;123169;-61
2022/09/26 02:18:39;;;;;;;;;;;;;;;;;;5014070;28;98597;-60
2022/09/26 02:21:11;;;;;;;2.03;1.40;;;;;;;;;;5014652;28;97187;-60
2022/09/26 02:23:37;;;;;;;1.50;1.40;;;;;;;;;;5013050;28;95478;-60
2022/09/26 02:26:04;;;;;;;3.25;1.63;;;;;;;;;;5012764;28;92583;-61
2022/09/26 02:28:30;;;;;;;1.60;1.50;;;;;;;;;;5013349;28;96204;-60
2022/09/26 02:31:00;;;;;;;1.92;1.40;;;;;;;;;;5012954;28;94267;-60
2022/09/26 02:33:27;;;;;;;1.58;1.48;;;;;;;;;;5012669;28;92995;-61
2022/09/26 02:35:54;;;;;;;1.55;1.25;;;;;;;;;;5013381;28;95071;-61
2022/09/26 02:38:25;;;;;;;2.90;1.40;;;;;;;;;;5013068;28;93302;-60
2022/09/26 02:41:03;;;;;;;2.03;1.45;;;;;;;;;;5015360;28;92992;-61
2022/09/26 02:43:45;;;;;;;2.80;1.50;;;;;;;;;;5012084;28;96590;-61
2022/09/26 02:46:14;;;;;;;2.10;1.55;;;;;;;;;;5012165;28;92560;-60
2022/09/26 02:48:47;;;;;;;2.50;1.30;;;;;;;;;;5013283;28;92968;-60
2022/09/26 02:51:13;;;;;;;;;;;;;;;;;;5012639;28;95261;-60
2022/09/26 02:54:03;;;;;;;7.25;1.50;;;;;;;;;;5014409;28;113372;-61
2022/09/26 02:56:49;;;;;;;1.35;1.25;;;;;;;;;;5012954;28;92956;-61
2022/09/26 02:59:36;;;;;;;1.75;1.65;;;;;;;;;;5013353;28;94391;-61
2022/09/26 03:02:14;;;;;;;1.40;1.30;;;;;;;;;;5010742;28;91940;-61
2022/09/26 03:04:48;;;;;;;2.40;1.60;;;;;;;;;;5015668;28;92387;-61
2022/09/26 03:07:17;;;;;;;1.42;1.33;;;;;;;;;;5011660;28;92610;-61
2022/09/26 03:09:46;;;;;;;1.85;1.63;;;;;;;;;;5011529;28;95778;-61
2022/09/26 03:12:12;;;;;;;1.77;1.55;;;;;;;;;;5013806;28;93087;-60
2022/09/26 03:14:40;;;;;;;2.05;1.60;;;;;;;;;;5011934;28;92872;-60
2022/09/26 03:17:07;;;;;;;2.30;1.48;;;;;;;;;;5021672;28;94074;-60
2022/09/26 03:19:33;;;;;;;1.90;1.65;;;;;;;;;;5032810;28;95217;-60
2022/09/26 03:22:01;;;;;;;3.78;1.40;;;;;;;;;;5031865;28;92533;-61
2022/09/26 03:24:28;;;;;;;2.92;2.08;;;;;;;;;;5031553;28;93890;-60
2022/09/26 03:26:57;;;;;;;1.40;1.30;;;;;;;;;;5012566;28;92439;-60
2022/09/26 03:29:24;;;;;;;1.80;1.48;;;;;;;;;;5012809;28;92857;-61
2022/09/26 03:31:50;;;;;;;1.92;1.58;;;;;;;;;;5016993;28;93214;-61
2022/09/26 03:34:17;;;;;;;2.17;1.80;;;;;;;;;;5014632;28;94860;-60
2022/09/26 03:36:45;;;;;;;2.40;1.60;;;;;;;;;;5015088;28;96260;-61
2022/09/26 03:39:12;;;;;;;2.13;1.70;;;;;;;;;;5015522;28;93229;-61
2022/09/26 03:41:49;;;;;;;2.75;1.50;;;;;;;;;;5015921;28;92606;-60
2022/09/26 03:44:24;;;;;;;4.68;1.75;;;;;;;;;;5015475;28;93484;-61
2022/09/26 03:46:59;;;;;;;2.15;1.90;;;;;;;;;;5019589;28;92978;-60
2022/09/26 03:49:26;;;;;;;3.80;1.80;;;;;;;;;;5014944;28;93739;-60
2022/09/26 03:51:52;;;;;;;3.42;1.73;;;;;;;;;;5018060;28;92400;-61
2022/09/26 03:54:18;;;;;;;1.70;1.60;;;;;;;;;;5016781;28;92406;-60
2022/09/26 03:56:46;;;;;;;3.30;1.80;;;;;;;;;;5015151;28;94829;-60
2022/09/26 03:59:13;;;;;;;3.60;1.75;;;;;;;;;;5013365;28;97881;-60
2022/09/26 04:01:40;;;;;;;2.08;1.88;;;;;;;;;;5015330;28;92567;-61
2022/09/26 04:04:07;;;;;;;2.75;1.90;;;;;;;;;;5014224;28;95365;-61
2022/09/26 04:06:33;;;;;;;3.85;1.90;;;;;;;;;;5016909;28;93341;-61
2022/09/26 04:09:00;;;;;;;2.53;2.17;;;;;;;;;;5035049;28;93107;-61
2022/09/26 04:11:30;;;;;;;2.47;1.90;;;;;;;;;;5034866;28;96189;-60
2022/09/26 04:13:56;;;;;;;1.80;1.70;;;;;;;;;;5035340;28;92567;-61
2022/09/26 04:16:28;;;;;;;2.17;1.98;;;;;;;;;;5036002;28;94197;-60
2022/09/26 04:19:00;;;;;;;2.95;1.67;;;;;;;;;;5034307;28;93219;-60
2022/09/26 04:21:28;;;;;;;3.22;2.00;;;;;;;;;;5035468;28;92973;-60
2022/09/26 04:23:56;;;;;;;2.90;2.20;;;;;;;;;;5032951;28;94799;-60
2022/09/26 04:26:23;;;;;;;3.05;2.08;;;;;;;;;;5015976;28;93052;-60
2022/09/26 04:28:53;;;;;;;2.55;1.98;;;;;;;;;;5015174;28;92600;-60
2022/09/26 04:31:21;;;;;;;1.63;1.52;;;;;;;;;;5017305;28;94012;-60
2022/09/26 04:33:56;;;;;;;4.63;2.10;;;;;;;;;;5015281;28;92525;-60
2022/09/26 04:36:22;;;;;;;2.33;2.03;;;;;;;;;;5015061;28;93138;-61
2022/09/26 04:38:49;;;;;;;1.98;1.88;;;;;;;;;;5014021;28;95042;-61
2022/09/26 04:41:18;;;;;;;4.07;2.13;;;;;;;;;;5015384;28;91836;-60
2022/09/26 04:43:47;;;;;;;2.05;1.85;;;;;;;;;;5015185;28;93267;-60
2022/09/26 04:46:22;;;;;;;4.30;2.60;;;;;;;;;;5011705;28;95770;-60
2022/09/26 04:48:56;;;;;;;2.03;1.80;;;;;;;;;;5014295;28;96040;-60
2022/09/26 04:51:25;;;;;;;2.85;2.03;;;;;;;;;;5014757;28;97061;-60
2022/09/26 04:53:51;;;;;;;3.50;2.03;;;;;;;;;;5018419;28;93003;-60
2022/09/26 04:56:24;;;;;;;5.15;2.17;;;;;;;;;;5014875;28;92953;-60
2022/09/26 04:58:53;;;;;;;2.72;2.05;;;;;;;;;;5016517;28;93057;-60
2022/09/26 05:01:20;;;;;;;2.22;2.03;;;;;;;;;;5013196;28;92513;-61
2022/09/26 05:04:04;;;;;;;3.80;1.88;;;;;;;;;;5014569;28;93092;-60
2022/09/26 05:06:31;;;;;;;2.03;1.85;;;;;;;;;;5014151;28;93099;-61
2022/09/26 05:09:00;;;;;;;2.00;1.90;;;;;;;;;;5014309;28;92479;-60
2022/09/26 05:11:42;;;;;;;4.65;2.13;;;;;;;;;;5014725;28;92856;-60
2022/09/26 05:14:10;;;;;;;4.18;2.50;;;;;;;;;;5011423;28;95824;-60
2022/09/26 05:16:38;;;;;;;2.30;1.90;;;;;;;;;;5018864;28;93252;-60
2022/09/26 05:19:10;;;;;;;2.38;1.95;;;;;;;;;;5013397;28;95134;-60
2022/09/26 05:21:44;;;;;;;2.03;1.70;;;;;;;;;;5013639;28;92528;-60
2022/09/26 05:26:58;;;;;;;7.43;1.80;;;;;;;;;;5013788;28;93140;-61
2022/09/26 05:29:24;;;;;;;2.88;2.45;;;;;;;;;;5012681;28;92481;-60
2022/09/26 05:31:56;;;;;;;2.60;1.90;;;;;;;;;;5014573;28;93063;-60
2022/09/26 05:34:25;;;;;;;2.72;1.85;;;;;;;;;;5050772;27;93103;-60
2022/09/26 05:36:52;;;;;;;2.72;1.70;;;;;;;;;;5036674;28;92447;-60
2022/09/26 05:42:09;;;;;;;4.40;1.98;;;;;;;;;;5033279;27;92897;-60
2022/09/26 05:44:35;;;;;;;2.05;1.55;;;;;;;;;;5002367;28;92997;-60
2022/09/26 05:47:02;;;;;;;1.90;1.70;;;;;;;;;;5008223;28;93194;-61
2022/09/26 05:49:29;;;;;;;6.20;1.90;;;;;;;;;;4994195;28;94164;-60
2022/09/26 05:51:56;;;;;;;2.53;1.73;;;;;;;;;;4995380;28;92581;-61
2022/09/26 05:54:22;;;;;;;2.17;1.52;;;;;;;;;;4992815;28;93283;-61
2022/09/26 05:56:51;;;;;;;2.20;1.65;;;;;;;;;;5026222;27;93442;-61
2022/09/26 05:59:38;;;;;;;2.95;1.40;;;;;;;;;;5017792;27;92564;-60
2022/09/26 06:02:36;;;;;;;4.47;1.83;;;;;;;;;;4997995;28;92564;-60
2022/09/26 06:05:15;;;;;;;3.55;1.65;;;;;;;;;;4992683;28;94862;-61
2022/09/26 06:07:41;;;;;;;1.63;1.52;;;;;;;;;;4995054;28;93136;-60
2022/09/26 06:10:12;;;;;;;2.03;1.45;;;;;;;;;;4993975;28;92692;-60
2022/09/26 06:12:42;;;;;;;2.17;1.60;;;;;;;;;;4992273;28;94791;-60
2022/09/26 06:15:14;;;;;;;2.10;1.63;;;;;;;;;;4994301;28;93040;-61
2022/09/26 06:17:40;;;;;;;6.32;1.65;;;;;;;;;;4992385;28;92581;-61
2022/09/26 06:20:08;;;;;;;4.15;1.63;;;;;;;;;;4999905;28;94785;-61
2022/09/26 06:22:42;;;;;;;2.83;1.42;;;;;;;;;;5008310;28;93307;-63
2022/09/26 06:25:11;;;;;;;6.07;1.70;;;;;;;;;;4996173;28;94330;-62
2022/09/26 06:27:38;;;;;;;5.68;2.25;;;;;;;;;;5006434;28;93211;-61
2022/09/26 06:30:11;;;;;;;3.05;1.70;;;;;;;;;;5021201;28;94922;-62
2022/09/26 06:32:38;;;;;;;6.80;1.77;;;;;;;;;;5032684;28;97283;-63
2022/09/26 06:35:21;;;;;;;14.90;2.25;;;;;;;;;;5008399;28;94232;-62
2022/09/26 06:38:07;;;;;;;6.22;1.65;;;;;;;;;;5003205;28;92498;-62
2022/09/26 06:40:34;;;;;;;21.50;2.33;;;;;;;;;;4995991;28;93154;-62
2022/09/26 06:43:00;;;;;;;7.63;2.15;;;;;;;;;;4993988;28;93042;-62
2022/09/26 06:45:49;;;;;;;4.65;1.50;;;;;;;;;;4996487;28;92997;-62
2022/09/26 06:48:24;;;;;;;4.93;1.90;;;;;;;;;;5027081;28;95179;-62
2022/09/26 06:50:59;;;;;;;5.18;1.75;;;;;;;;;;4993138;28;92515;-62
2022/09/26 06:53:28;;;;;;;7.68;1.80;;;;;;;;;;4992538;28;92924;-62
2022/09/26 06:55:57;;;;;;;1.92;1.80;;;;;;;;;;4991356;28;95618;-62
2022/09/26 06:58:25;;;;;;;5.15;2.08;;;;;;;;;;4994414;28;92529;-62
2022/09/26 07:00:58;;;;;;;3.42;1.90;;;;;;;;;;4997405;28;95164;-62
2022/09/26 07:03:43;;;;;;;5.05;1.55;;;;;;;;;;5012960;28;93367;-62
2022/09/26 07:06:46;;;;;;;1.95;1.77;;;;;;;;;;4974494;28;92815;-62
2022/09/26 07:09:15;;;;;;;6.90;1.65;;;;;;;;;;5012109;28;92840;-62
2022/09/26 07:11:50;;;;;;;2.78;1.90;;;;;;;;;;5015485;28;92568;-62
2022/09/26 07:14:37;;;;;;;5.70;1.75;;;;;;;;;;5017781;28;92701;-62
2022/09/26 07:17:17;;;;;;;1.75;1.65;;;;;;;;;;5015750;28;93262;-62
2022/09/26 07:20:01;;;;;;;3.17;1.70;;;;;;;;;;5015648;28;94043;-62
2022/09/26 07:22:50;;;;;;;3.38;1.80;;;;;;;;;;5015873;28;94695;-62
2022/09/26 07:25:16;;;;;;;4.28;1.65;;;;;;;;;;5017248;28;93008;-62
2022/09/26 07:27:47;;;;;;;1.70;1.60;;;;;;;;;;5015093;28;92425;-61
2022/09/26 07:30:14;;;;;;;2.63;1.65;;;;;;;;;;5018818;28;93115;-61
2022/09/26 07:33:03;;;;;;;9.07;2.03;;;;;;;;;;5016777;28;92558;-61
2022/09/26 07:35:43;;;;;;;2.13;1.60;;;;;;;;;;5015391;28;93932;-62
2022/09/26 07:38:11;;;;;;;2.90;1.60;;;;;;;;;;5015553;28;95198;-61
2022/09/26 07:40:39;;;;;;;2.75;1.77;;;;;;;;;;5003710;28;91751;-62
2022/09/26 07:43:06;;;;;;;5.03;1.40;;;;;;;;;;4995834;28;92817;-61
2022/09/26 07:51:39;;;;;;;3.72;1.80;;;;;;;;;;4995516;28;94787;-61
2022/09/26 07:54:10;;;;;;;5.22;1.58;;;;;;;;;;4998427;28;93336;-62
2022/09/26 07:56:57;;;;;;;4.20;1.77;;;;;;;;;;4988119;28;92947;-62
2022/09/26 07:59:36;;;;;;;2.47;1.80;;;;;;;;;;4995109;28;94838;-62
2022/09/26 08:02:24;;;;;;;3.55;1.60;;;;;;;;;;5011175;28;92843;-62
2022/09/26 08:04:53;;;;;;;3.30;1.60;;;;;;;;;;5015588;28;94843;-62
2022/09/26 08:07:26;;;;;;;2.47;1.65;;;;;;;;;;5011550;28;92421;-62
2022/09/26 08:10:20;;;;;;;3.28;1.70;;;;;;;;;;4995513;28;92524;-62
2022/09/26 08:13:19;;;;;;;1.95;1.40;;;;;;;;;;4992573;28;92518;-62
2022/09/26 08:16:06;;;;;;;1.95;1.63;;;;;;;;;;4992163;28;96396;-62
2022/09/26 08:18:38;;;;;;;3.05;1.85;;;;;;;;;;5017576;28;92939;-64
2022/09/26 08:21:05;;;;;;;1.88;1.50;;;;;;;;;;4996747;28;95393;-62
2022/09/26 08:23:31;;;;;;;2.10;1.90;;;;;;;;;;5028237;28;93309;-62
2022/09/26 08:26:20;;;;;;;3.08;1.58;;;;;;;;;;4996325;28;92387;-62
2022/09/26 08:28:49;;;;;;;1.90;1.80;;;;;;;;;;4994818;28;93770;-61
2022/09/26 08:31:16;;;;;;;1.98;1.60;;;;;;;;;;5035401;27;92632;-62
2022/09/26 08:33:43;;;;;;;1.73;1.55;;;;;;;;;;4995594;28;92856;-62
2022/09/26 08:36:10;;;;;;;2.45;1.75;;;;;;;;;;4995079;28;92957;-62
2022/09/26 08:38:56;;;;;;;4.38;2.00;;;;;;;;;;5006094;28;93787;-61
2022/09/26 08:41:44;;;;;;;4.38;1.85;;;;;;;;;;4996021;28;94816;-61
2022/09/26 08:44:52;;;;;;;2.08;1.55;;;;;;;;;;4994360;28;92447;-61
2022/09/26 08:47:50;;;;;;;1.70;1.60;;;;;;;;;;5003571;28;93021;-62
2022/09/26 08:50:49;;;;;;;2.17;1.92;;;;;;;;;;5013761;28;92827;-62
2022/09/26 08:53:15;;;;;;;;;;;;;;;;;;5013908;28;93019;-62
2022/09/26 08:55:55;;;;;;;3.50;1.77;;;;;;;;;;5018135;28;92689;-61
2022/09/26 08:58:32;;;;;;;1.90;1.80;;;;;;;;;;5014708;28;93354;-62
2022/09/26 09:01:01;;;;;;;2.53;1.70;;;;;;;;;;5012203;28;93192;-62
2022/09/26 09:03:35;;;;;;;3.53;1.70;;;;;;;;;;5003647;28;92560;-62
2022/09/26 09:06:10;;;;;;;2.67;1.85;;;;;;;;;;4996057;28;93349;-62
2022/09/26 09:08:44;;;;;;;1.60;1.50;;;;;;;;;;4993449;28;94885;-62
2022/09/26 09:11:48;;;;;;;1.70;1.60;;;;;;;;;;4996257;28;94610;-62
2022/09/26 09:14:19;;;;;;;2.28;2.00;;;;;;;;;;5003831;28;92572;-62
2022/09/26 09:17:15;;;;;;;1.70;1.60;;;;;;;;;;4994936;28;92859;-62
2022/09/26 09:20:02;;;;;;;1.80;1.70;;;;;;;;;;4993383;28;93245;-62
2022/09/26 09:22:54;;;;;;;4.78;1.75;;;;;;;;;;4995889;28;92443;-62
2022/09/26 09:25:38;;;;;;;2.60;2.03;;;;;;;;;;4994336;28;94805;-62
2022/09/26 09:28:23;;;;;;;4.85;2.30;;;;;;;;;;4994152;28;92424;-62
2022/09/26 09:30:50;;;;;;;2.75;1.80;;;;;;;;;;4999034;28;92481;-62
2022/09/26 09:33:38;;;;;;;2.65;1.80;;;;;;;;;;4994147;28;93296;-62
2022/09/26 09:36:40;;;;;;;3.03;2.00;;;;;;;;;;5025797;28;94983;-62
2022/09/26 09:39:28;;;;;;;4.00;1.92;;;;;;;;;;4995701;28;94784;-61
2022/09/26 09:42:02;;;;;;;2.10;2.00;;;;;;;;;;4994535;28;94940;-62
2022/09/26 09:44:40;;;;;;;5.22;1.80;;;;;;;;;;5015194;28;92470;-62
2022/09/26 09:47:15;;;;;;;2.22;1.75;;;;;;;;;;5015327;28;92706;-62
2022/09/26 09:49:42;;;;;;;1.52;1.42;;;;;;;;;;5014084;28;94804;-62
2022/09/26 09:52:12;;;;;;;3.33;1.85;;;;;;;;;;5010564;28;92522;-62
2022/09/26 09:54:40;;;;;;;6.60;1.92;;;;;;;;;;4994336;28;92610;-62
2022/09/26 09:57:07;;;;;;;5.38;1.80;;;;;;;;;;4994473;28;92496;-62
2022/09/26 09:59:34;;;;;;;4.15;2.05;;;;;;;;;;4994000;28;94984;-62
2022/09/26 10:02:19;;;;;;;3.13;1.80;;;;;;;;;;4990303;28;96431;-62
2022/09/26 10:04:54;;;;;;;2.63;1.73;;;;;;;;;;4994077;28;93535;-62
2022/09/26 10:07:21;;;;;;;3.90;2.03;;;;;;;;;;4993788;28;92906;-62
2022/09/26 10:10:11;;;;;;;2.42;1.70;;;;;;;;;;4993669;28;92838;-62
2022/09/26 10:12:59;;;;;;;4.30;2.05;;;;;;;;;;4994446;28;92609;-62
2022/09/26 10:16:03;;;;;;;4.35;1.60;;;;;;;;;;4995999;28;92646;-62
2022/09/26 10:19:02;;;;;;;2.45;1.83;;;;;;;;;;4993203;28;92437;-62
2022/09/26 10:21:32;;;;;;;3.05;2.00;;;;;;;;;;4993339;28;95144;-62
2022/09/26 10:24:00;;;;;;;7.13;1.77;;;;;;;;;;4992181;28;95093;-62
2022/09/26 10:26:49;;;;;;;2.75;2.00;;;;;;;;;;4994671;28;92494;-62
2022/09/26 10:29:33;;;;;;;1.92;1.77;;;;;;;;;;4991573;28;95019;-62
2022/09/26 10:32:01;;;;;;;2.90;2.30;;;;;;;;;;4991711;28;95248;-62
2022/09/26 10:34:29;;;;;;;3.42;2.00;;;;;;;;;;4993069;28;92587;-62
2022/09/26 10:36:57;;;;;;;2.75;1.90;;;;;;;;;;4993285;28;93229;-62
2022/09/26 10:42:15;;;;;;;4.05;1.92;;;;;;;;;;5011557;28;95646;-62
2022/09/26 10:44:42;;;;;;;2.55;1.85;;;;;;;;;;5015101;28;94039;-62
2022/09/26 10:47:25;;;;;;;2.55;1.55;;;;;;;;;;5017293;28;91698;-62
2022/09/26 10:50:24;;;;;;;1.70;1.60;;;;;;;;;;5003795;28;92399;-62
2022/09/26 10:53:35;;;;;;;4.65;2.20;;;;;;;;;;5017533;28;93028;-62
2022/09/26 10:56:07;;;;;;;2.45;1.88;;;;;;;;;;5014862;28;95058;-62
2022/09/26 10:58:37;;;;;;;2.00;1.70;;;;;;;;;;5015700;28;97831;-62
2022/09/26 11:01:06;;;;;;;3.10;2.00;;;;;;;;;;5016087;28;93238;-62
2022/09/26 11:03:42;;;;;;;2.92;2.00;;;;;;;;;;5019795;28;92542;-62
2022/09/26 11:06:30;;;;;;;1.67;1.58;;;;;;;;;;5016313;28;92397;-62
2022/09/26 11:09:03;;;;;;;1.77;1.40;;;;;;;;;;5016122;28;92597;-59
2022/09/26 11:11:49;;;;;;;9.13;2.10;;;;;;;;;;5008108;28;92511;-61
2022/09/26 11:14:31;;;;;;;2.97;1.52;;;;;;;;;;4995722;28;92683;-62
2022/09/26 11:17:18;;;;;;;5.63;2.00;;;;;;;;;;4995949;28;92520;-62
2022/09/26 11:19:51;;;;;;;2.13;1.92;;;;;;;;;;4995622;28;92918;-62
2022/09/26 11:22:36;;;;;;;1.95;1.75;;;;;;;;;;4993753;28;97772;-62
2022/09/26 11:25:16;;;;;;;2.15;1.73;;;;;;;;;;4996330;28;92483;-62
2022/09/26 11:27:49;;;;;;;2.75;1.60;;;;;;;;;;5031733;28;92912;-62
2022/09/26 11:30:23;;;;;;;2.08;1.88;;;;;;;;;;4997846;28;92359;-62
2022/09/26 11:32:59;;;;;;;2.25;2.05;;;;;;;;;;4996056;28;93907;-62
2022/09/26 11:35:52;;;;;;;1.73;1.58;;;;;;;;;;4997469;28;92672;-62
2022/09/26 11:38:22;;;;;;;1.92;1.65;;;;;;;;;;4995508;28;92484;-62
2022/09/26 11:41:00;;;;;;;2.03;1.70;;;;;;;;;;4999306;28;93152;-62
2022/09/26 11:43:46;;;;;;;3.08;1.92;;;;;;;;;;5013855;28;93322;-62
2022/09/26 11:46:43;;;;;;;1.42;1.33;;;;;;;;;;5015884;28;92455;-62
2022/09/26 11:49:40;;;;;;;2.60;1.40;;;;;;;;;;5013290;28;94785;-62
2022/09/26 11:52:36;;;;;;;4.72;1.67;;;;;;;;;;5008158;28;93287;-62
2022/09/26 11:55:23;;;;;;;1.67;1.20;;;;;;;;;;4996032;28;92959;-62
2022/09/26 11:57:52;;;;;;;1.50;1.40;;;;;;;;;;4996796;28;93487;-62
2022/09/26 12:00:23;;;;;;;1.70;1.60;;;;;;;;;;4996744;28;92451;-62
2022/09/26 12:03:05;;;;;;;2.67;1.60;;;;;;;;;;4995780;28;94101;-61
2022/09/26 12:05:37;;;;;;;1.50;1.40;;;;;;;;;;4996861;28;94067;-62
2022/09/26 12:08:13;;;;;;;2.28;1.67;;;;;;;;;;4997003;28;91645;-62
2022/09/26 12:10:53;;;;;;;1.92;1.83;;;;;;;;;;4996490;28;92287;-62
2022/09/26 12:13:28;;;;;;;1.60;1.50;;;;;;;;;;5019514;28;94067;-62
2022/09/26 12:15:54;;;;;;;1.70;1.58;;;;;;;;;;5014430;28;95634;-62
2022/09/26 12:18:27;;;;;;;3.17;1.25;;;;;;;;;;5016669;28;94020;-62
2022/09/26 12:21:02;;;;;;;1.67;1.58;;;;;;;;;;5016799;28;92344;-62
2022/09/26 12:23:36;;;;;;;1.77;1.65;;;;;;;;;;5015963;28;94038;-62
2022/09/26 12:26:14;;;;;;;1.40;1.30;;;;;;;;;;5007315;28;93455;-62
2022/09/26 12:28:49;;;;;;;2.05;1.60;;;;;;;;;;4996743;28;92487;-61
2022/09/26 12:31:22;;;;;;;2.80;1.48;;;;;;;;;;4995775;28;92959;-62
2022/09/26 12:34:04;;;;;;;1.70;1.40;;;;;;;;;;4996787;28;92804;-62
2022/09/26 12:36:39;;;;;;;1.20;1.20;;;;;;;;;;4999252;28;93560;-62
2022/09/26 12:39:14;;;;;;;1.23;1.23;;;;;;;;;;4999506;28;94227;-68
2022/09/26 12:41:46;;;;;;;3.70;1.65;;;;;;;;;;5014690;28;94823;-69
2022/09/26 12:44:30;;;;;;;1.77;1.35;;;;;;;;;;5015247;28;95731;-62
2022/09/26 12:46:57;;;;;;;3.63;1.30;;;;;;;;;;5015960;28;94281;-62
2022/09/26 12:49:49;;;;;;;1.33;1.20;;;;;;;;;;5016244;28;92519;-62
2022/09/26 12:52:34;;;;;;;7.53;1.98;;;;;;;;;;5002388;28;93906;-65
2022/09/26 12:55:19;;;;;;;4.63;1.40;;;;;;;;;;5011800;28;94261;-65
2022/09/26 12:57:56;;;;;;;2.70;1.42;;;;;;;;;;5005059;28;93807;-64
2022/09/26 13:00:22;;;;;;;1.30;1.20;;;;;;;;;;5009079;28;93966;-63
2022/09/26 13:03:08;;;;;;;2.38;2.00;;;;;;;;;;5002758;28;96158;-62
2022/09/26 13:05:51;;;;;;;3.50;1.40;;;;;;;;;;5006592;28;94036;-63
2022/09/26 13:08:29;;;;;;;1.40;1.30;;;;;;;;;;5004806;28;96500;-63
2022/09/26 13:11:11;;;;;;;2.67;1.13;;;;;;;;;;4997961;28;93984;-66
2022/09/26 13:14:08;;;;;;;3.22;1.38;;;;;;;;;;4996456;28;93909;-63
2022/09/26 13:16:59;;;;;;;1.40;1.30;;;;;;;;;;4976302;28;95165;-63
2022/09/26 13:19:30;;;;;;;1.52;1.20;;;;;;;;;;4992063;28;92411;-63
2022/09/26 13:21:58;;;;;;;1.30;1.23;;;;;;;;;;4997658;28;93967;-62
2022/09/26 13:24:39;;;;;;;4.00;1.20;;;;;;;;;;4998060;28;94408;-60
2022/09/26 13:27:07;;;;;;;;;;;;;;;;;;5012128;28;94128;-59
2022/09/26 13:29:36;;;;;;;1.27;1.27;;;;;;;;;;5008367;28;111313;-59
2022/09/26 13:32:04;;;;;;;1.25;1.23;;;;;;;;;;5005188;28;93125;-59
2022/09/26 13:34:36;;;;;;;4.53;1.30;;;;;;;;;;4996610;28;96038;-60
2022/09/26 13:37:04;;;;;;;1.40;1.13;;;;;;;;;;4996293;28;94878;-59
2022/09/26 13:39:38;;;;;;;1.48;1.13;;;;;;;;;;5000022;28;92459;-60
2022/09/26 13:42:05;;;;;;;2.35;1.27;;;;;;;;;;4999292;28;94245;-60
2022/09/26 13:44:52;;;;;;;1.02;1.02;;;;;;;;;;4999343;28;94603;-60
2022/09/26 13:47:26;;;;;;;2.70;1.30;;;;;;;;;;5004616;28;93019;-60
2022/09/26 13:50:13;;;;;;;1.23;1.13;;;;;;;;;;5015092;28;93660;-60
2022/09/26 13:52:40;;;;;;;1.42;1.00;;;;;;;;;;4996384;28;92865;-60
2022/09/26 13:55:15;;;;;;;1.13;1.10;;;;;;;;;;5014003;28;93018;-60
2022/09/26 13:57:42;;;;;;;1.17;1.17;;;;;;;;;;5004604;28;94854;-59
2022/09/26 14:00:15;;;;;;;3.05;1.10;;;;;;;;;;5005267;28;94880;-60
2022/09/26 14:03:02;;;;;;;0.90;0.90;;;;;;;;;;5013677;28;96504;-60
2022/09/26 14:05:50;;;;;;;1.20;1.10;;;;;;;;;;4994270;28;94344;-60
2022/09/26 14:11:18;;;;;;;0.93;0.93;;;;;;;;;;4997514;28;94015;-60
2022/09/26 14:13:45;;;;;;;0.90;0.90;;;;;;;;;;4994054;28;92437;-60
2022/09/26 14:16:26;;;;;;;0.93;0.93;;;;;;;;;;5004642;28;92885;-65
2022/09/26 14:19:11;;;;;;;6.38;1.10;;;;;;;;;;5014922;28;92496;-60
2022/09/26 14:21:55;;;;;;;1.20;1.10;;;;;;;;;;4995418;28;92499;-60
2022/09/26 14:24:35;;;;;;;1.38;1.05;;;;;;;;;;5007708;28;94108;-59
2022/09/26 14:27:05;;;;;;;1.08;0.85;;;;;;;;;;5012428;28;96869;-59
2022/09/26 14:29:31;;;;;;;0.93;0.93;;;;;;;;;;5013654;28;92603;-60
2022/09/26 14:32:03;;;;;;;1.00;1.00;;;;;;;;;;5017140;28;94767;-60
2022/09/26 14:34:49;;;;;;;3.93;0.90;;;;;;;;;;5012299;28;92498;-60
2022/09/26 14:37:24;;;;;;;1.10;1.10;;;;;;;;;;5005807;28;95306;-60
2022/09/26 14:40:09;;;;;;;0.93;0.93;;;;;;;;;;5014322;28;94163;-59
2022/09/26 14:42:38;;;;;;;0.90;0.90;;;;;;;;;;5014381;28;92906;-60
2022/09/26 14:45:06;;;;;;;1.75;1.00;;;;;;;;;;5013830;28;94747;-60
2022/09/26 14:47:41;;;;;;;0.90;0.90;;;;;;;;;;5013958;28;93567;-60
2022/09/26 14:50:19;;;;;;;1.52;1.13;;;;;;;;;;5013819;28;92517;-60
2022/09/26 14:52:57;;;;;;;0.85;0.85;;;;;;;;;;5009440;28;94972;-60
2022/09/26 14:55:24;;;;;;;2.78;1.00;;;;;;;;;;5013496;28;94431;-60
2022/09/26 14:57:51;;;;;;;2.70;1.10;;;;;;;;;;5013621;28;94171;-60
2022/09/26 15:00:35;;;;;;;0.90;0.90;;;;;;;;;;5013700;28;94076;-61
2022/09/26 15:03:11;;;;;;;1.00;1.00;;;;;;;;;;5014068;28;92538;-60
2022/09/26 15:05:39;;;;;;;1.20;1.10;;;;;;;;;;5013570;28;93801;-60
2022/09/26 15:08:18;;;;;;;2.00;1.10;;;;;;;;;;5013574;28;94616;-60
2022/09/26 15:10:46;;;;;;;1.15;1.00;;;;;;;;;;5014504;28;91612;-60
2022/09/26 15:13:15;;;;;;;0.90;0.90;;;;;;;;;;5013193;28;93105;-60
2022/09/26 15:15:54;;;;;;;1.75;1.20;;;;;;;;;;5002105;28;95144;-59
2022/09/26 15:18:27;;;;;;;4.95;1.50;;;;;;;;;;5007855;28;94931;-60
2022/09/26 15:20:55;;;;;;;1.95;1.85;;;;;;;;;;5012073;28;94706;-60
2022/09/26 15:23:32;;;;;;;1.33;1.23;;;;;;;;;;4995334;28;92462;-60
2022/09/26 15:26:01;;;;;;;2.28;1.98;;;;;;;;;;4995985;28;94183;-59
2022/09/26 15:28:30;;;;;;;1.48;1.40;;;;;;;;;;5005458;28;94599;-59
2022/09/26 15:31:15;;;;;;;1.63;1.52;;;;;;;;;;5000592;28;92513;-59
2022/09/26 15:33:42;;;;;;;2.10;1.42;;;;;;;;;;4996418;28;94442;-59
2022/09/26 15:36:10;;;;;;;1.70;1.60;;;;;;;;;;5001294;28;93690;-59
2022/09/26 15:38:37;;;;;;;3.28;1.52;;;;;;;;;;4996694;28;92492;-59
2022/09/26 15:41:04;;;;;;;2.60;1.63;;;;;;;;;;5014512;28;94006;-59
2022/09/26 15:43:34;;;;;;;1.67;1.58;;;;;;;;;;5018676;27;94797;-59